sensor_id;sensor_type;location;lat;lon;timestamp;temperature;humidity
61400;DHT22;47269;48.182;-1.946;2023-07-29T06:00:06;19.10;99.90
61400;DHT22;47269;48.182;-1.946;2023-07-29T06:02:32;19.00;99.90
61400;DHT22;47269;48.182;-1.946;2023-07-29T06:04:57;18.90;99.90
61400;DHT22;47269;48.182;-1.946;2023-07-29T06:07:23;18.80;99.90
61400;DHT22;47269;48.182;-1.946;2023-07-29T06:09:49;18.90;99.90
61400;DHT22;47269;48.182;-1.946;2023-07-29T06:12:14;19.10;99.90
61400;DHT22;47269;48.182;-1.946;2023-07-29T06:14:40;19.20;99.90
61400;DHT22;47269;48.182;-1.946;2023-07-29T06:17:06;19.20;99.90
61400;DHT22;47269;48.182;-1.946;2023-07-29T06:19:32;19.20;99.90
61400;DHT22;47269;48.182;-1.946;2023-07-29T06:21:58;19.20;99.90
61400;DHT22;47269;48.182;-1.946;2023-07-29T06:24:23;19.20;99.90
61400;DHT22;47269;48.182;-1.946;2023-07-29T06:26:49;19.10;99.90
61400;DHT22;47269;48.182;-1.946;2023-07-29T06:29:15;19.20;99.90
61400;DHT22;47269;48.182;-1.946;2023-07-29T06:31:40;19.10;99.90
61400;DHT22;47269;48.182;-1.946;2023-07-29T06:34:06;19.10;99.90
61400;DHT22;47269;48.182;-1.946;2023-07-29T06:36:31;19.00;99.90
61400;DHT22;47269;48.182;-1.946;2023-07-29T06:38:57;19.10;99.90
61400;DHT22;47269;48.182;-1.946;2023-07-29T06:41:23;19.20;99.90
61400;DHT22;47269;48.182;-1.946;2023-07-29T06:43:48;19.40;99.90
61400;DHT22;47269;48.182;-1.946;2023-07-29T06:46:14;19.30;99.90
61400;DHT22;47269;48.182;-1.946;2023-07-29T06:48:40;19.30;99.90
61400;DHT22;47269;48.182;-1.946;2023-07-29T06:51:05;19.40;99.90
61400;DHT22;47269;48.182;-1.946;2023-07-29T06:53:31;19.40;99.90
61400;DHT22;47269;48.182;-1.946;2023-07-29T06:55:57;19.50;99.90
61400;DHT22;47269;48.182;-1.946;2023-07-29T06:58:24;19.50;99.90
61400;DHT22;47269;48.182;-1.946;2023-07-29T07:00:50;19.50;99.90
61400;DHT22;47269;48.182;-1.946;2023-07-29T07:03:16;19.40;99.90
61400;DHT22;47269;48.182;-1.946;2023-07-29T07:05:41;19.50;99.90
61400;DHT22;47269;48.182;-1.946;2023-07-29T07:08:07;19.80;99.90
61400;DHT22;47269;48.182;-1.946;2023-07-29T07:10:33;19.80;99.90
61400;DHT22;47269;48.182;-1.946;2023-07-29T07:12:59;19.70;99.90
61400;DHT22;47269;48.182;-1.946;2023-07-29T07:15:25;19.50;99.90
61400;DHT22;47269;48.182;-1.946;2023-07-29T07:17:51;19.50;99.90
61400;DHT22;47269;48.182;-1.946;2023-07-29T07:20:17;19.60;99.90
61400;DHT22;47269;48.182;-1.946;2023-07-29T07:22:42;20.30;99.90
61400;DHT22;47269;48.182;-1.946;2023-07-29T07:25:08;20.00;99.90
61400;DHT22;47269;48.182;-1.946;2023-07-29T07:27:34;20.20;99.90
61400;DHT22;47269;48.182;-1.946;2023-07-29T07:30:00;20.70;99.90
61400;DHT22;47269;48.182;-1.946;2023-07-29T07:32:26;20.50;99.90
61400;DHT22;47269;48.182;-1.946;2023-07-29T07:34:51;19.90;99.90
61400;DHT22;47269;48.182;-1.946;2023-07-29T07:37:17;21.00;99.90
61400;DHT22;47269;48.182;-1.946;2023-07-29T07:39:43;21.10;99.90
61400;DHT22;47269;48.182;-1.946;2023-07-29T07:42:08;21.90;99.90
61400;DHT22;47269;48.182;-1.946;2023-07-29T07:44:34;22.00;99.90
61400;DHT22;47269;48.182;-1.946;2023-07-29T07:47:00;20.80;99.90
61400;DHT22;47269;48.182;-1.946;2023-07-29T07:49:25;20.30;99.90
61400;DHT22;47269;48.182;-1.946;2023-07-29T07:51:51;20.80;99.90
61400;DHT22;47269;48.182;-1.946;2023-07-29T07:54:17;22.20;99.90
61400;DHT22;47269;48.182;-1.946;2023-07-29T07:56:43;22.30;99.90
61400;DHT22;47269;48.182;-1.946;2023-07-29T07:59:08;21.60;99.90
61400;DHT22;47269;48.182;-1.946;2023-07-29T08:01:35;21.40;99.90
61400;DHT22;47269;48.182;-1.946;2023-07-29T08:04:01;21.30;99.90
61400;DHT22;47269;48.182;-1.946;2023-07-29T08:06:27;21.30;99.90
61400;DHT22;47269;48.182;-1.946;2023-07-29T08:08:53;21.80;99.90
61400;DHT22;47269;48.182;-1.946;2023-07-29T08:11:18;21.90;99.90
61400;DHT22;47269;48.182;-1.946;2023-07-29T08:13:44;22.70;99.90
61400;DHT22;47269;48.182;-1.946;2023-07-29T08:16:10;22.60;99.90
61400;DHT22;47269;48.182;-1.946;2023-07-29T08:18:35;22.10;99.90
61400;DHT22;47269;48.182;-1.946;2023-07-29T08:21:01;21.30;99.90
61400;DHT22;47269;48.182;-1.946;2023-07-29T08:23:32;20.70;99.90
61400;DHT22;47269;48.182;-1.946;2023-07-29T08:26:01;21.20;99.90
61400;DHT22;47269;48.182;-1.946;2023-07-29T08:28:38;21.70;99.90
61400;DHT22;47269;48.182;-1.946;2023-07-29T08:31:04;22.90;99.90
61400;DHT22;47269;48.182;-1.946;2023-07-29T08:33:30;24.20;99.90
61400;DHT22;47269;48.182;-1.946;2023-07-29T08:35:56;25.10;99.90
61400;DHT22;47269;48.182;-1.946;2023-07-29T08:38:22;24.30;99.90
61400;DHT22;47269;48.182;-1.946;2023-07-29T08:43:32;25.70;99.90
61400;DHT22;47269;48.182;-1.946;2023-07-29T08:46:00;25.50;99.90
61400;DHT22;47269;48.182;-1.946;2023-07-29T08:48:40;25.60;99.90
61400;DHT22;47269;48.182;-1.946;2023-07-29T08:51:07;25.30;99.90
61400;DHT22;47269;48.182;-1.946;2023-07-29T08:53:33;25.10;99.90
61400;DHT22;47269;48.182;-1.946;2023-07-29T08:56:00;26.10;99.90
61400;DHT22;47269;48.182;-1.946;2023-07-29T08:58:26;26.30;99.90
61400;DHT22;47269;48.182;-1.946;2023-07-29T09:00:52;25.80;99.90
61400;DHT22;47269;48.182;-1.946;2023-07-29T09:03:19;25.80;99.90
61400;DHT22;47269;48.182;-1.946;2023-07-29T09:05:46;26.70;99.90
61400;DHT22;47269;48.182;-1.946;2023-07-29T09:08:12;26.40;99.90
61400;DHT22;47269;48.182;-1.946;2023-07-29T09:10:37;26.50;99.90
61400;DHT22;47269;48.182;-1.946;2023-07-29T09:13:07;26.70;99.90
61400;DHT22;47269;48.182;-1.946;2023-07-29T09:15:34;25.40;99.90
61400;DHT22;47269;48.182;-1.946;2023-07-29T09:18:16;26.30;99.90
61400;DHT22;47269;48.182;-1.946;2023-07-29T09:20:42;27.00;99.90
61400;DHT22;47269;48.182;-1.946;2023-07-29T09:23:09;28.10;99.90
61400;DHT22;47269;48.182;-1.946;2023-07-29T09:25:38;27.70;99.90
61400;DHT22;47269;48.182;-1.946;2023-07-29T09:28:10;27.90;99.90
61400;DHT22;47269;48.182;-1.946;2023-07-29T09:30:41;27.80;99.90
61400;DHT22;47269;48.182;-1.946;2023-07-29T09:33:08;27.10;99.90
61400;DHT22;47269;48.182;-1.946;2023-07-29T09:35:35;27.70;99.90
61400;DHT22;47269;48.182;-1.946;2023-07-29T09:38:03;28.20;99.90
61400;DHT22;47269;48.182;-1.946;2023-07-29T09:40:39;27.30;99.90
61400;DHT22;47269;48.182;-1.946;2023-07-29T09:43:07;26.60;99.90
61400;DHT22;47269;48.182;-1.946;2023-07-29T09:45:37;27.90;99.90
61400;DHT22;47269;48.182;-1.946;2023-07-29T09:48:03;28.60;99.90
61400;DHT22;47269;48.182;-1.946;2023-07-29T09:50:30;27.60;99.90
61400;DHT22;47269;48.182;-1.946;2023-07-29T09:52:57;25.90;99.90
61400;DHT22;47269;48.182;-1.946;2023-07-29T09:55:25;27.00;99.90
61400;DHT22;47269;48.182;-1.946;2023-07-29T09:57:58;27.50;99.90
61400;DHT22;47269;48.182;-1.946;2023-07-29T10:00:30;25.20;99.90
61400;DHT22;47269;48.182;-1.946;2023-07-29T10:02:57;25.70;99.90
61400;DHT22;47269;48.182;-1.946;2023-07-29T10:05:25;27.00;99.90
61400;DHT22;47269;48.182;-1.946;2023-07-29T10:07:51;26.50;99.90
61400;DHT22;47269;48.182;-1.946;2023-07-29T10:10:17;26.90;99.90
61400;DHT22;47269;48.182;-1.946;2023-07-29T10:12:43;25.40;99.90
61400;DHT22;47269;48.182;-1.946;2023-07-29T10:15:10;25.70;99.90
61400;DHT22;47269;48.182;-1.946;2023-07-29T10:17:37;25.10;99.90
61400;DHT22;47269;48.182;-1.946;2023-07-29T10:20:05;25.30;99.90
61400;DHT22;47269;48.182;-1.946;2023-07-29T10:22:39;26.10;99.90
61400;DHT22;47269;48.182;-1.946;2023-07-29T10:25:19;26.70;99.90
61400;DHT22;47269;48.182;-1.946;2023-07-29T10:27:56;25.60;99.90
61400;DHT22;47269;48.182;-1.946;2023-07-29T10:30:24;25.00;99.90
61400;DHT22;47269;48.182;-1.946;2023-07-29T10:32:52;26.20;99.90
61400;DHT22;47269;48.182;-1.946;2023-07-29T10:35:18;27.20;99.90
61400;DHT22;47269;48.182;-1.946;2023-07-29T10:37:44;26.80;99.90
61400;DHT22;47269;48.182;-1.946;2023-07-29T10:40:12;26.60;99.90
61400;DHT22;47269;48.182;-1.946;2023-07-29T10:42:38;27.00;99.90
61400;DHT22;47269;48.182;-1.946;2023-07-29T10:45:24;27.30;99.90
61400;DHT22;47269;48.182;-1.946;2023-07-29T10:47:50;27.60;99.90
61400;DHT22;47269;48.182;-1.946;2023-07-29T10:50:20;27.80;99.90
61400;DHT22;47269;48.182;-1.946;2023-07-29T10:52:52;27.10;99.90
61400;DHT22;47269;48.182;-1.946;2023-07-29T10:55:28;27.50;99.90
61400;DHT22;47269;48.182;-1.946;2023-07-29T10:58:12;26.60;99.90
61400;DHT22;47269;48.182;-1.946;2023-07-29T11:00:42;27.50;99.90
61400;DHT22;47269;48.182;-1.946;2023-07-29T11:03:09;26.90;99.90
61400;DHT22;47269;48.182;-1.946;2023-07-29T11:05:52;26.80;99.90
61400;DHT22;47269;48.182;-1.946;2023-07-29T11:11:07;26.00;99.90
61400;DHT22;47269;48.182;-1.946;2023-07-29T11:13:35;25.60;99.90
61400;DHT22;47269;48.182;-1.946;2023-07-29T11:16:01;26.20;99.90
61400;DHT22;47269;48.182;-1.946;2023-07-29T11:18:32;25.70;99.90
61400;DHT22;47269;48.182;-1.946;2023-07-29T11:21:03;25.40;99.90
61400;DHT22;47269;48.182;-1.946;2023-07-29T11:25:56;25.50;99.90
61400;DHT22;47269;48.182;-1.946;2023-07-29T11:28:22;26.60;99.90
61400;DHT22;47269;48.182;-1.946;2023-07-29T11:30:49;26.50;99.90
61400;DHT22;47269;48.182;-1.946;2023-07-29T11:33:26;26.10;99.90
61400;DHT22;47269;48.182;-1.946;2023-07-29T11:35:54;25.40;99.90
61400;DHT22;47269;48.182;-1.946;2023-07-29T11:38:21;27.00;99.90
61400;DHT22;47269;48.182;-1.946;2023-07-29T11:40:54;26.70;99.90
61400;DHT22;47269;48.182;-1.946;2023-07-29T11:43:20;26.10;99.90
61400;DHT22;47269;48.182;-1.946;2023-07-29T11:45:46;26.30;99.90
61400;DHT22;47269;48.182;-1.946;2023-07-29T11:48:12;26.00;99.90
61400;DHT22;47269;48.182;-1.946;2023-07-29T11:50:37;26.00;99.90
61400;DHT22;47269;48.182;-1.946;2023-07-29T11:53:03;25.70;99.90
61400;DHT22;47269;48.182;-1.946;2023-07-29T11:55:29;26.20;99.90
61400;DHT22;47269;48.182;-1.946;2023-07-29T11:57:55;26.10;99.90
61400;DHT22;47269;48.182;-1.946;2023-07-29T12:00:21;26.20;99.90
61400;DHT22;47269;48.182;-1.946;2023-07-29T12:02:49;26.70;99.90
61400;DHT22;47269;48.182;-1.946;2023-07-29T12:05:15;26.40;99.90
61400;DHT22;47269;48.182;-1.946;2023-07-29T12:07:42;26.40;99.90
61400;DHT22;47269;48.182;-1.946;2023-07-29T12:10:09;26.40;99.90
61400;DHT22;47269;48.182;-1.946;2023-07-29T12:12:46;26.40;99.90
61400;DHT22;47269;48.182;-1.946;2023-07-29T12:15:12;26.80;99.90
61400;DHT22;47269;48.182;-1.946;2023-07-29T12:17:40;26.10;99.90
61400;DHT22;47269;48.182;-1.946;2023-07-29T12:20:11;25.80;99.90
61400;DHT22;47269;48.182;-1.946;2023-07-29T12:22:36;25.40;99.90
61400;DHT22;47269;48.182;-1.946;2023-07-29T12:25:03;25.20;99.90
61400;DHT22;47269;48.182;-1.946;2023-07-29T12:27:30;25.00;99.90
61400;DHT22;47269;48.182;-1.946;2023-07-29T12:29:56;25.00;99.90
61400;DHT22;47269;48.182;-1.946;2023-07-29T12:32:25;25.70;99.90
61400;DHT22;47269;48.182;-1.946;2023-07-29T12:34:53;25.50;99.90
61400;DHT22;47269;48.182;-1.946;2023-07-29T12:37:19;25.70;99.90
61400;DHT22;47269;48.182;-1.946;2023-07-29T12:39:44;25.50;99.90
61400;DHT22;47269;48.182;-1.946;2023-07-29T12:42:10;25.30;99.90
61400;DHT22;47269;48.182;-1.946;2023-07-29T12:44:37;24.80;99.90
61400;DHT22;47269;48.182;-1.946;2023-07-29T12:47:04;24.40;99.90
61400;DHT22;47269;48.182;-1.946;2023-07-29T12:49:31;24.50;99.90
61400;DHT22;47269;48.182;-1.946;2023-07-29T12:51:58;25.10;99.90
61400;DHT22;47269;48.182;-1.946;2023-07-29T12:54:24;25.30;99.90
61400;DHT22;47269;48.182;-1.946;2023-07-29T12:56:50;24.90;99.90
61400;DHT22;47269;48.182;-1.946;2023-07-29T12:59:16;24.50;99.90
61400;DHT22;47269;48.182;-1.946;2023-07-29T13:01:42;24.30;99.90
61400;DHT22;47269;48.182;-1.946;2023-07-29T13:04:08;24.70;99.90
61400;DHT22;47269;48.182;-1.946;2023-07-29T13:06:34;24.70;99.90
61400;DHT22;47269;48.182;-1.946;2023-07-29T13:09:00;24.40;99.90
61400;DHT22;47269;48.182;-1.946;2023-07-29T13:11:25;25.10;99.90
61400;DHT22;47269;48.182;-1.946;2023-07-29T13:13:51;25.40;99.90
61400;DHT22;47269;48.182;-1.946;2023-07-29T13:16:17;25.30;99.90
61400;DHT22;47269;48.182;-1.946;2023-07-29T13:18:43;25.30;99.90
61400;DHT22;47269;48.182;-1.946;2023-07-29T13:21:09;25.70;99.90
61400;DHT22;47269;48.182;-1.946;2023-07-29T13:23:35;25.90;99.90
61400;DHT22;47269;48.182;-1.946;2023-07-29T13:26:01;26.30;99.90
61400;DHT22;47269;48.182;-1.946;2023-07-29T13:28:27;25.90;99.90
61400;DHT22;47269;48.182;-1.946;2023-07-29T13:30:53;25.50;99.90
61400;DHT22;47269;48.182;-1.946;2023-07-29T13:33:18;25.00;99.90
61400;DHT22;47269;48.182;-1.946;2023-07-29T13:35:44;24.80;99.90
61400;DHT22;47269;48.182;-1.946;2023-07-29T13:38:10;25.00;99.90
61400;DHT22;47269;48.182;-1.946;2023-07-29T13:40:36;24.80;99.90
61400;DHT22;47269;48.182;-1.946;2023-07-29T13:43:02;25.10;99.90
61400;DHT22;47269;48.182;-1.946;2023-07-29T13:45:28;25.40;99.90
61400;DHT22;47269;48.182;-1.946;2023-07-29T13:47:53;25.70;99.90
61400;DHT22;47269;48.182;-1.946;2023-07-29T13:50:19;26.00;99.90
61400;DHT22;47269;48.182;-1.946;2023-07-29T13:52:45;25.40;99.90
61400;DHT22;47269;48.182;-1.946;2023-07-29T13:55:11;25.60;99.90
61400;DHT22;47269;48.182;-1.946;2023-07-29T13:57:38;25.60;99.90
61400;DHT22;47269;48.182;-1.946;2023-07-29T14:00:07;25.30;99.90
61400;DHT22;47269;48.182;-1.946;2023-07-29T14:02:33;25.70;99.90
61400;DHT22;47269;48.182;-1.946;2023-07-29T14:04:59;25.30;99.90
61400;DHT22;47269;48.182;-1.946;2023-07-29T14:07:25;25.30;99.90
61400;DHT22;47269;48.182;-1.946;2023-07-29T14:09:50;25.70;99.90
61400;DHT22;47269;48.182;-1.946;2023-07-29T14:12:16;25.40;99.90
61400;DHT22;47269;48.182;-1.946;2023-07-29T14:14:42;25.40;99.90
61400;DHT22;47269;48.182;-1.946;2023-07-29T14:17:08;25.60;99.90
61400;DHT22;47269;48.182;-1.946;2023-07-29T14:19:35;25.50;99.90
61400;DHT22;47269;48.182;-1.946;2023-07-29T14:22:01;25.90;99.90
61400;DHT22;47269;48.182;-1.946;2023-07-29T14:24:26;25.60;99.90
61400;DHT22;47269;48.182;-1.946;2023-07-29T14:26:52;25.90;99.90
61400;DHT22;47269;48.182;-1.946;2023-07-29T14:29:18;26.00;99.90
61400;DHT22;47269;48.182;-1.946;2023-07-29T14:31:43;26.20;99.90
61400;DHT22;47269;48.182;-1.946;2023-07-29T14:34:09;25.90;99.90
61400;DHT22;47269;48.182;-1.946;2023-07-29T14:36:36;25.60;99.90
61400;DHT22;47269;48.182;-1.946;2023-07-29T14:39:02;26.00;99.90
61400;DHT22;47269;48.182;-1.946;2023-07-29T14:41:27;25.50;99.90
61400;DHT22;47269;48.182;-1.946;2023-07-29T14:43:53;25.30;99.90
61400;DHT22;47269;48.182;-1.946;2023-07-29T14:46:18;25.10;99.90
61400;DHT22;47269;48.182;-1.946;2023-07-29T14:48:44;25.10;99.90
61400;DHT22;47269;48.182;-1.946;2023-07-29T14:51:12;25.20;99.90
61400;DHT22;47269;48.182;-1.946;2023-07-29T14:53:38;24.70;99.90
61400;DHT22;47269;48.182;-1.946;2023-07-29T14:56:04;24.30;99.90
61400;DHT22;47269;48.182;-1.946;2023-07-29T14:58:30;24.10;99.90
61400;DHT22;47269;48.182;-1.946;2023-07-29T15:00:55;23.60;99.90
61400;DHT22;47269;48.182;-1.946;2023-07-29T15:03:21;23.30;99.90
61400;DHT22;47269;48.182;-1.946;2023-07-29T15:05:47;23.00;99.90
61400;DHT22;47269;48.182;-1.946;2023-07-29T15:08:13;21.60;99.90
61400;DHT22;47269;48.182;-1.946;2023-07-29T15:10:38;20.80;99.90
61400;DHT22;47269;48.182;-1.946;2023-07-29T15:13:04;20.40;99.90
61400;DHT22;47269;48.182;-1.946;2023-07-29T15:15:29;20.20;99.90
61400;DHT22;47269;48.182;-1.946;2023-07-29T15:17:58;20.10;99.90
61400;DHT22;47269;48.182;-1.946;2023-07-29T15:20:24;19.90;99.90
61400;DHT22;47269;48.182;-1.946;2023-07-29T15:22:50;19.90;99.90
61400;DHT22;47269;48.182;-1.946;2023-07-29T15:25:15;19.80;99.90
61400;DHT22;47269;48.182;-1.946;2023-07-29T15:27:41;19.90;99.90
61400;DHT22;47269;48.182;-1.946;2023-07-29T15:30:07;20.00;99.90
61400;DHT22;47269;48.182;-1.946;2023-07-29T15:32:33;20.30;99.90
61400;DHT22;47269;48.182;-1.946;2023-07-29T15:34:59;20.20;99.90
61400;DHT22;47269;48.182;-1.946;2023-07-29T15:37:27;20.10;99.90
61400;DHT22;47269;48.182;-1.946;2023-07-29T15:39:53;20.20;99.90
61400;DHT22;47269;48.182;-1.946;2023-07-29T15:42:19;20.00;99.90
61400;DHT22;47269;48.182;-1.946;2023-07-29T15:44:44;19.90;99.90
61400;DHT22;47269;48.182;-1.946;2023-07-29T15:47:10;20.10;99.90
61400;DHT22;47269;48.182;-1.946;2023-07-29T15:49:38;20.20;99.90
61400;DHT22;47269;48.182;-1.946;2023-07-29T15:52:04;20.20;99.90
61400;DHT22;47269;48.182;-1.946;2023-07-29T15:54:30;20.40;99.90
61400;DHT22;47269;48.182;-1.946;2023-07-29T15:56:55;19.90;99.90
61400;DHT22;47269;48.182;-1.946;2023-07-29T15:59:21;19.60;99.90
61400;DHT22;47269;48.182;-1.946;2023-07-29T16:01:46;19.80;99.90
61400;DHT22;47269;48.182;-1.946;2023-07-29T16:04:12;19.60;99.90
61400;DHT22;47269;48.182;-1.946;2023-07-29T16:06:38;19.20;99.90
61400;DHT22;47269;48.182;-1.946;2023-07-29T16:09:03;19.10;99.90
61400;DHT22;47269;48.182;-1.946;2023-07-29T16:11:32;19.20;99.90
61400;DHT22;47269;48.182;-1.946;2023-07-29T16:13:58;18.80;99.90
61400;DHT22;47269;48.182;-1.946;2023-07-29T16:16:24;18.50;99.90
61400;DHT22;47269;48.182;-1.946;2023-07-29T16:18:50;18.50;99.90
61400;DHT22;47269;48.182;-1.946;2023-07-29T16:21:15;18.30;99.90
61400;DHT22;47269;48.182;-1.946;2023-07-29T16:23:41;18.20;99.90
61400;DHT22;47269;48.182;-1.946;2023-07-29T16:26:07;18.20;99.90
61400;DHT22;47269;48.182;-1.946;2023-07-29T16:28:32;18.20;99.90
61400;DHT22;47269;48.182;-1.946;2023-07-29T16:30:58;18.00;99.90
61400;DHT22;47269;48.182;-1.946;2023-07-29T16:33:24;17.90;99.90
61400;DHT22;47269;48.182;-1.946;2023-07-29T16:35:49;17.80;99.90
61400;DHT22;47269;48.182;-1.946;2023-07-29T16:38:15;18.20;99.90
61400;DHT22;47269;48.182;-1.946;2023-07-29T16:40:41;18.40;99.90
61400;DHT22;47269;48.182;-1.946;2023-07-29T16:43:06;18.20;99.90
61400;DHT22;47269;48.182;-1.946;2023-07-29T16:45:32;18.00;99.90
61400;DHT22;47269;48.182;-1.946;2023-07-29T16:47:58;18.10;99.90
61400;DHT22;47269;48.182;-1.946;2023-07-29T16:50:23;18.10;99.90
61400;DHT22;47269;48.182;-1.946;2023-07-29T16:52:49;18.10;99.90
61400;DHT22;47269;48.182;-1.946;2023-07-29T16:55:19;18.20;99.90
61400;DHT22;47269;48.182;-1.946;2023-07-29T16:57:45;18.30;99.90
61400;DHT22;47269;48.182;-1.946;2023-07-29T17:00:12;18.40;99.90
61400;DHT22;47269;48.182;-1.946;2023-07-29T17:02:37;18.20;99.90
61400;DHT22;47269;48.182;-1.946;2023-07-29T17:05:03;18.20;99.90
61400;DHT22;47269;48.182;-1.946;2023-07-29T17:07:30;18.20;99.90
61400;DHT22;47269;48.182;-1.946;2023-07-29T17:09:56;18.20;99.90
61400;DHT22;47269;48.182;-1.946;2023-07-29T17:12:21;18.10;99.90
61400;DHT22;47269;48.182;-1.946;2023-07-29T17:14:47;18.20;99.90
61400;DHT22;47269;48.182;-1.946;2023-07-29T17:17:13;18.30;99.90
61400;DHT22;47269;48.182;-1.946;2023-07-29T17:19:38;18.40;99.90
61400;DHT22;47269;48.182;-1.946;2023-07-29T17:22:04;18.20;99.90
61400;DHT22;47269;48.182;-1.946;2023-07-29T17:24:30;18.00;99.90
61400;DHT22;47269;48.182;-1.946;2023-07-29T17:26:56;18.20;99.90
61400;DHT22;47269;48.182;-1.946;2023-07-29T17:29:21;18.00;99.90
61400;DHT22;47269;48.182;-1.946;2023-07-29T17:31:47;18.00;99.90
61400;DHT22;47269;48.182;-1.946;2023-07-29T17:34:13;18.10;99.90
61400;DHT22;47269;48.182;-1.946;2023-07-29T17:36:38;17.90;99.90
61400;DHT22;47269;48.182;-1.946;2023-07-29T17:39:05;17.80;99.90
61400;DHT22;47269;48.182;-1.946;2023-07-29T17:41:33;18.00;99.90
61400;DHT22;47269;48.182;-1.946;2023-07-29T17:43:59;17.60;99.90
61400;DHT22;47269;48.182;-1.946;2023-07-29T17:46:25;17.70;99.90
61400;DHT22;47269;48.182;-1.946;2023-07-29T17:48:50;17.60;99.90
61400;DHT22;47269;48.182;-1.946;2023-07-29T17:51:16;17.50;99.90
61400;DHT22;47269;48.182;-1.946;2023-07-29T17:53:42;17.40;99.90
61400;DHT22;47269;48.182;-1.946;2023-07-29T17:56:08;17.30;99.90
61400;DHT22;47269;48.182;-1.946;2023-07-29T17:58:36;17.40;99.90
61400;DHT22;47269;48.182;-1.946;2023-07-29T18:01:03;17.50;99.90
61400;DHT22;47269;48.182;-1.946;2023-07-29T18:03:29;17.50;99.90
61400;DHT22;47269;48.182;-1.946;2023-07-29T18:05:55;17.70;99.90
61400;DHT22;47269;48.182;-1.946;2023-07-29T18:08:20;17.80;99.90
61400;DHT22;47269;48.182;-1.946;2023-07-29T18:10:46;17.80;99.90
61400;DHT22;47269;48.182;-1.946;2023-07-29T18:13:12;17.80;99.90
61400;DHT22;47269;48.182;-1.946;2023-07-29T18:15:37;18.20;99.90
61400;DHT22;47269;48.182;-1.946;2023-07-29T18:18:03;18.40;99.90
61400;DHT22;47269;48.182;-1.946;2023-07-29T18:20:30;18.40;99.90
61400;DHT22;47269;48.182;-1.946;2023-07-29T18:22:55;18.40;99.90
61400;DHT22;47269;48.182;-1.946;2023-07-29T18:25:26;18.30;99.90
61400;DHT22;47269;48.182;-1.946;2023-07-29T18:27:51;18.50;99.90
61400;DHT22;47269;48.182;-1.946;2023-07-29T18:30:17;18.40;99.90
61400;DHT22;47269;48.182;-1.946;2023-07-29T18:32:43;18.50;99.90
61400;DHT22;47269;48.182;-1.946;2023-07-29T18:35:09;18.50;99.90
61400;DHT22;47269;48.182;-1.946;2023-07-29T18:37:45;18.40;99.90
61400;DHT22;47269;48.182;-1.946;2023-07-29T18:40:12;18.60;99.90
61400;DHT22;47269;48.182;-1.946;2023-07-29T18:42:38;18.20;99.90
61400;DHT22;47269;48.182;-1.946;2023-07-29T18:45:04;18.20;99.90
61400;DHT22;47269;48.182;-1.946;2023-07-29T18:47:30;18.20;99.90
61400;DHT22;47269;48.182;-1.946;2023-07-29T18:49:56;18.30;99.90
61400;DHT22;47269;48.182;-1.946;2023-07-29T18:52:24;18.20;99.90
61400;DHT22;47269;48.182;-1.946;2023-07-29T18:54:50;18.10;99.90
61400;DHT22;47269;48.182;-1.946;2023-07-29T18:57:19;18.30;99.90
61400;DHT22;47269;48.182;-1.946;2023-07-29T18:59:45;18.10;99.90
61400;DHT22;47269;48.182;-1.946;2023-07-29T19:02:10;18.30;99.90
61400;DHT22;47269;48.182;-1.946;2023-07-29T19:04:36;18.40;99.90
61400;DHT22;47269;48.182;-1.946;2023-07-29T19:07:02;18.10;99.90
61400;DHT22;47269;48.182;-1.946;2023-07-29T19:09:27;18.10;99.90
61400;DHT22;47269;48.182;-1.946;2023-07-29T19:11:53;18.10;99.90
61400;DHT22;47269;48.182;-1.946;2023-07-29T19:14:19;18.00;99.90
61400;DHT22;47269;48.182;-1.946;2023-07-29T19:16:46;18.00;99.90
61400;DHT22;47269;48.182;-1.946;2023-07-29T19:19:12;18.20;99.90
61400;DHT22;47269;48.182;-1.946;2023-07-29T19:21:38;18.20;99.90
61400;DHT22;47269;48.182;-1.946;2023-07-29T19:24:04;18.10;99.90
61400;DHT22;47269;48.182;-1.946;2023-07-29T19:26:30;18.10;99.90
61400;DHT22;47269;48.182;-1.946;2023-07-29T19:28:56;18.00;99.90
61400;DHT22;47269;48.182;-1.946;2023-07-29T19:31:23;17.90;99.90
61400;DHT22;47269;48.182;-1.946;2023-07-29T19:33:48;17.90;99.90
61400;DHT22;47269;48.182;-1.946;2023-07-29T19:36:14;17.90;99.90
61400;DHT22;47269;48.182;-1.946;2023-07-29T19:38:40;17.70;99.90
61400;DHT22;47269;48.182;-1.946;2023-07-29T19:41:05;17.70;99.90
61400;DHT22;47269;48.182;-1.946;2023-07-29T19:43:31;17.70;99.90
61400;DHT22;47269;48.182;-1.946;2023-07-29T19:45:58;17.80;99.90
61400;DHT22;47269;48.182;-1.946;2023-07-29T19:48:24;17.80;99.90
61400;DHT22;47269;48.182;-1.946;2023-07-29T19:50:51;17.80;99.90
61400;DHT22;47269;48.182;-1.946;2023-07-29T19:53:16;17.90;99.90
61400;DHT22;47269;48.182;-1.946;2023-07-29T19:55:42;17.80;99.90
61400;DHT22;47269;48.182;-1.946;2023-07-29T19:58:16;17.70;99.90
61400;DHT22;47269;48.182;-1.946;2023-07-29T20:00:42;17.70;99.90
61400;DHT22;47269;48.182;-1.946;2023-07-29T20:03:07;17.80;99.90
61400;DHT22;47269;48.182;-1.946;2023-07-29T20:05:33;17.80;99.90
61400;DHT22;47269;48.182;-1.946;2023-07-29T20:07:59;17.80;99.90
61400;DHT22;47269;48.182;-1.946;2023-07-29T20:10:24;17.80;99.90
61400;DHT22;47269;48.182;-1.946;2023-07-29T20:12:52;17.90;99.90
61400;DHT22;47269;48.182;-1.946;2023-07-29T20:15:18;17.80;99.90
61400;DHT22;47269;48.182;-1.946;2023-07-29T20:17:43;17.90;99.90
61400;DHT22;47269;48.182;-1.946;2023-07-29T20:20:10;17.90;99.90
61400;DHT22;47269;48.182;-1.946;2023-07-29T20:22:36;17.90;99.90
61400;DHT22;47269;48.182;-1.946;2023-07-29T20:25:01;17.80;99.90
61400;DHT22;47269;48.182;-1.946;2023-07-29T20:27:27;17.70;99.90
61400;DHT22;47269;48.182;-1.946;2023-07-29T20:29:52;17.70;99.90
61400;DHT22;47269;48.182;-1.946;2023-07-29T20:32:18;17.90;99.90
61400;DHT22;47269;48.182;-1.946;2023-07-29T20:34:44;17.80;99.90
61400;DHT22;47269;48.182;-1.946;2023-07-29T20:37:09;17.80;99.90
61400;DHT22;47269;48.182;-1.946;2023-07-29T20:39:35;17.70;99.90
61400;DHT22;47269;48.182;-1.946;2023-07-29T20:42:01;17.70;99.90
61400;DHT22;47269;48.182;-1.946;2023-07-29T20:44:27;17.50;99.90
61400;DHT22;47269;48.182;-1.946;2023-07-29T20:46:53;17.30;99.90
61400;DHT22;47269;48.182;-1.946;2023-07-29T20:49:18;17.20;99.90
61400;DHT22;47269;48.182;-1.946;2023-07-29T20:51:44;17.20;99.90
61400;DHT22;47269;48.182;-1.946;2023-07-29T20:54:10;17.10;99.90
61400;DHT22;47269;48.182;-1.946;2023-07-29T20:56:35;17.10;99.90
61400;DHT22;47269;48.182;-1.946;2023-07-29T20:59:01;17.10;99.90
61400;DHT22;47269;48.182;-1.946;2023-07-29T21:01:27;17.10;99.90
61400;DHT22;47269;48.182;-1.946;2023-07-29T21:03:53;17.00;99.90
61400;DHT22;47269;48.182;-1.946;2023-07-29T21:06:19;16.90;99.90
61400;DHT22;47269;48.182;-1.946;2023-07-29T21:08:46;17.00;99.90
61400;DHT22;47269;48.182;-1.946;2023-07-29T21:11:12;16.90;99.90
61400;DHT22;47269;48.182;-1.946;2023-07-29T21:13:37;16.90;99.90
61400;DHT22;47269;48.182;-1.946;2023-07-29T21:16:03;16.90;99.90
61400;DHT22;47269;48.182;-1.946;2023-07-29T21:18:29;16.80;99.90